createdAt,value
2017-06-12T00:01:13.482Z,8.70
2017-06-12T00:03:41.601Z,8.57
2017-06-12T00:06:09.749Z,9.10
2017-06-12T00:08:37.885Z,9.60
2017-06-12T00:11:06.023Z,10.83
2017-06-12T00:13:34.146Z,11.87
2017-06-12T00:16:02.288Z,13.50
2017-06-12T00:18:30.374Z,11.70
2017-06-12T00:20:58.482Z,12.17
2017-06-12T00:23:26.593Z,11.10
2017-06-12T00:25:54.712Z,12.23
2017-06-12T00:28:22.817Z,13.07
2017-06-12T00:30:50.960Z,13.53
2017-06-12T00:33:19.093Z,14.10
2017-06-12T00:35:47.202Z,12.80
2017-06-12T00:38:15.326Z,12.50
2017-06-12T00:40:43.451Z,13.07
2017-06-12T00:43:11.559Z,14.97
2017-06-12T00:45:39.666Z,13.47
2017-06-12T00:48:07.758Z,12.97
2017-06-12T00:50:35.890Z,14.20
2017-06-12T00:53:04.002Z,14.30
2017-06-12T00:55:32.134Z,13.67
2017-06-12T00:58:00.250Z,14.27
2017-06-12T01:00:28.401Z,13.47
2017-06-12T01:02:56.515Z,12.03
2017-06-12T01:11:19.194Z,10.77
2017-06-12T01:13:47.518Z,11.53
2017-06-12T01:16:16.913Z,10.87
2017-06-12T01:18:45.037Z,10.90
2017-06-12T01:21:13.154Z,12.40
2017-06-12T01:23:41.249Z,10.07
2017-06-12T01:26:09.374Z,8.00
2017-06-12T01:28:37.483Z,9.40
2017-06-12T01:31:05.594Z,7.27
2017-06-12T01:33:33.696Z,7.50
2017-06-12T01:36:01.809Z,7.60
2017-06-12T01:38:29.939Z,9.70
2017-06-12T01:40:58.058Z,9.23
2017-06-12T01:43:26.145Z,7.40
2017-06-12T01:45:54.277Z,8.20
2017-06-12T01:48:22.395Z,8.47
2017-06-12T01:50:50.525Z,9.23
2017-06-12T01:53:18.629Z,9.03
2017-06-12T01:55:46.748Z,8.00
2017-06-12T01:58:14.851Z,9.40
2017-06-12T02:00:42.994Z,8.80
2017-06-12T02:03:11.098Z,9.90
2017-06-12T02:05:39.201Z,10.63
2017-06-12T02:08:07.302Z,10.43
2017-06-12T02:10:35.390Z,12.10
2017-06-12T02:13:03.519Z,12.17
2017-06-12T02:15:31.622Z,12.43
2017-06-12T02:17:59.778Z,12.43
2017-06-12T02:20:27.894Z,13.20
2017-06-12T02:22:56.012Z,13.33
2017-06-12T02:25:24.130Z,14.47
2017-06-12T02:27:52.234Z,15.13
2017-06-12T02:30:20.358Z,14.60
2017-06-12T02:32:48.463Z,14.33
2017-06-12T02:35:16.581Z,11.60
2017-06-12T02:37:44.710Z,11.00
2017-06-12T02:40:12.880Z,12.67
2017-06-12T02:42:42.958Z,10.93
2017-06-12T02:45:11.074Z,10.20
2017-06-12T02:47:39.183Z,8.60
2017-06-12T02:50:08.190Z,9.57
2017-06-12T02:52:36.307Z,8.30
2017-06-12T02:55:04.411Z,9.37
2017-06-12T02:57:32.546Z,6.87
2017-06-12T03:00:01.315Z,8.77
2017-06-12T03:02:29.424Z,6.63
2017-06-12T03:04:57.534Z,6.93
2017-06-12T03:07:25.663Z,6.67
2017-06-12T03:09:53.812Z,7.60
2017-06-12T03:12:21.907Z,9.90
2017-06-12T03:14:50.005Z,4.60
2017-06-12T03:17:18.107Z,7.83
2017-06-12T03:19:46.229Z,10.70
2017-06-12T03:22:14.325Z,6.37
2017-06-12T03:24:42.424Z,10.30
2017-06-12T03:27:10.534Z,8.23
2017-06-12T03:29:38.621Z,6.17
2017-06-12T03:32:06.736Z,5.77
2017-06-12T03:34:34.837Z,7.23
2017-06-12T03:37:02.958Z,6.10
2017-06-12T03:39:31.055Z,7.23
2017-06-12T03:41:59.152Z,8.43
2017-06-12T03:44:27.269Z,7.33
2017-06-12T03:46:55.438Z,8.37
2017-06-12T03:49:27.977Z,4.50
2017-06-12T03:51:56.100Z,7.17
2017-06-12T03:54:24.234Z,10.37
2017-06-12T03:56:52.335Z,6.20
2017-06-12T03:59:33.934Z,7.03
2017-06-12T04:02:02.041Z,5.97
2017-06-12T04:04:30.767Z,11.10
2017-06-12T04:06:58.894Z,6.27
2017-06-12T04:09:26.986Z,7.50
2017-06-12T04:11:55.133Z,4.37
2017-06-12T04:14:23.244Z,4.40
2017-06-12T04:16:51.374Z,6.50
2017-06-12T04:19:19.500Z,5.37
2017-06-12T04:21:47.627Z,8.57
2017-06-12T04:24:15.755Z,9.43
2017-06-12T04:26:43.864Z,8.17
2017-06-12T04:29:11.982Z,7.87
2017-06-12T04:31:40.098Z,9.23
2017-06-12T04:34:08.999Z,6.50
2017-06-12T04:36:37.138Z,5.33
2017-06-12T04:39:05.269Z,7.17
2017-06-12T04:41:33.383Z,5.03
2017-06-12T04:44:01.495Z,5.47
2017-06-12T04:46:29.610Z,8.27
2017-06-12T04:48:57.721Z,6.70
2017-06-12T04:51:25.863Z,7.60
2017-06-12T04:53:53.966Z,8.00
2017-06-12T04:56:22.076Z,8.60
2017-06-12T04:58:50.902Z,9.93
2017-06-12T05:01:19.064Z,8.57
2017-06-12T05:03:47.195Z,7.80
2017-06-12T05:06:15.321Z,7.97
2017-06-12T05:08:43.448Z,8.50
2017-06-12T05:11:11.586Z,5.93
2017-06-12T05:13:39.707Z,12.43
2017-06-12T05:16:07.965Z,8.10
2017-06-12T05:18:36.051Z,5.80
2017-06-12T05:21:04.748Z,16.90
2017-06-12T05:23:32.887Z,6.07
2017-06-12T05:26:00.997Z,6.63
2017-06-12T05:28:29.321Z,7.07
2017-06-12T05:30:57.409Z,7.23
2017-06-12T05:33:25.577Z,5.87
2017-06-12T05:35:53.703Z,8.67
2017-06-12T05:38:21.856Z,8.23
2017-06-12T05:40:49.958Z,7.00
2017-06-12T05:43:18.073Z,4.90
2017-06-12T05:45:46.187Z,7.07
2017-06-12T05:48:14.348Z,6.70
2017-06-12T05:50:42.457Z,8.60
2017-06-12T05:53:10.582Z,6.27
2017-06-12T05:55:38.675Z,7.23
2017-06-12T05:58:06.822Z,9.40
2017-06-12T06:00:34.979Z,10.17
2017-06-12T06:03:03.082Z,11.60
2017-06-12T06:05:31.209Z,11.07
2017-06-12T06:08:00.137Z,6.33
2017-06-12T06:10:28.296Z,8.80
2017-06-12T06:12:56.420Z,12.73
2017-06-12T06:15:24.523Z,7.87
2017-06-12T06:17:52.740Z,7.57
2017-06-12T06:20:20.850Z,7.60
2017-06-12T06:22:48.957Z,9.53
2017-06-12T06:25:17.094Z,5.83
2017-06-12T06:27:45.236Z,6.77
2017-06-12T06:30:13.383Z,6.40
2017-06-12T06:32:41.491Z,5.07
2017-06-12T06:35:09.645Z,10.23
2017-06-12T06:37:38.761Z,8.20
2017-06-12T06:40:06.927Z,7.80
2017-06-12T06:42:35.127Z,8.73
2017-06-12T06:45:03.366Z,7.27
2017-06-12T06:47:31.488Z,6.23
2017-06-12T06:49:59.596Z,6.87
2017-06-12T06:52:27.744Z,17.93
2017-06-12T06:54:55.856Z,5.10
2017-06-12T06:57:23.967Z,7.73
2017-06-12T06:59:52.102Z,4.13
2017-06-12T07:05:20.549Z,5.57
2017-06-12T07:07:49.159Z,5.90
2017-06-12T07:10:17.402Z,5.93
2017-06-12T07:12:45.487Z,7.63
2017-06-12T07:15:14.596Z,5.23
2017-06-12T07:17:42.719Z,8.40
2017-06-12T07:20:11.354Z,10.13
2017-06-12T07:22:40.284Z,5.90
2017-06-12T07:25:08.863Z,6.97
2017-06-12T07:27:36.972Z,8.37
2017-06-12T07:30:05.113Z,6.10
2017-06-12T07:32:33.286Z,9.90
2017-06-12T07:35:01.447Z,5.10
2017-06-12T07:37:29.623Z,6.17
2017-06-12T07:39:57.736Z,8.13
2017-06-12T07:42:26.666Z,3.83
2017-06-12T07:44:54.799Z,5.13
2017-06-12T07:47:22.930Z,5.07
2017-06-12T07:49:51.041Z,6.73
2017-06-12T07:52:19.177Z,5.80
2017-06-12T07:54:47.302Z,8.83
2017-06-12T07:57:15.513Z,7.53
2017-06-12T07:59:43.686Z,6.30
2017-06-12T08:02:11.812Z,4.70
2017-06-12T08:04:39.964Z,4.30
2017-06-12T08:07:08.521Z,5.77
2017-06-12T08:09:37.265Z,3.77
2017-06-12T08:12:05.933Z,3.67
2017-06-12T08:14:34.068Z,7.83
2017-06-12T08:17:04.093Z,3.63
2017-06-12T08:19:32.231Z,5.23
2017-06-12T08:22:00.990Z,7.63
2017-06-12T08:24:29.111Z,8.83
2017-06-12T08:26:57.231Z,5.27
2017-06-12T08:29:25.593Z,3.40
2017-06-12T08:31:53.693Z,7.03
2017-06-12T08:34:21.830Z,3.20
2017-06-12T08:36:49.950Z,4.87
2017-06-12T08:39:18.167Z,8.20
2017-06-12T08:41:46.308Z,4.23
2017-06-12T08:44:14.433Z,6.30
2017-06-12T08:46:42.535Z,3.77
2017-06-12T08:49:10.979Z,4.40
2017-06-12T08:51:39.080Z,2.30
2017-06-12T08:54:07.352Z,2.77
2017-06-12T08:56:35.472Z,5.47
2017-06-12T08:59:03.624Z,5.87
2017-06-12T09:01:31.749Z,2.03
2017-06-12T09:03:59.871Z,7.20
2017-06-12T09:06:28.063Z,4.97
2017-06-12T09:08:56.165Z,1.97
2017-06-12T09:11:24.295Z,2.80
2017-06-12T09:13:52.408Z,3.10
2017-06-12T09:16:20.562Z,4.10
2017-06-12T09:18:48.741Z,5.20
2017-06-12T09:21:16.912Z,4.87
2017-06-12T09:23:45.040Z,2.90
2017-06-12T09:26:13.148Z,5.50
2017-06-12T09:28:41.327Z,2.87
2017-06-12T09:31:09.714Z,5.20
2017-06-12T09:33:37.902Z,3.00
2017-06-12T09:36:06.027Z,2.53
2017-06-12T09:38:36.011Z,4.83
2017-06-12T09:41:04.346Z,2.80
2017-06-12T09:43:32.466Z,2.17
2017-06-12T09:46:00.625Z,5.90
2017-06-12T09:48:28.754Z,4.97
2017-06-12T09:50:56.875Z,3.03
2017-06-12T09:53:25.072Z,3.40
2017-06-12T09:55:53.186Z,4.57
2017-06-12T09:58:21.379Z,2.47
2017-06-12T10:00:49.551Z,2.73
2017-06-12T10:03:17.690Z,1.93
2017-06-12T10:05:45.833Z,2.23
2017-06-12T10:08:13.987Z,6.40
2017-06-12T10:10:42.138Z,2.83
2017-06-12T10:13:10.278Z,4.23
2017-06-12T10:15:38.454Z,4.87
2017-06-12T10:18:06.621Z,1.80
2017-06-12T10:20:34.757Z,3.70
2017-06-12T10:23:02.963Z,4.50
2017-06-12T10:25:31.111Z,3.23
2017-06-12T10:28:00.137Z,4.07
2017-06-12T10:30:28.271Z,4.83
2017-06-12T10:32:56.455Z,3.20
2017-06-12T10:35:24.570Z,6.23
2017-06-12T10:37:52.698Z,3.20
2017-06-12T10:40:20.811Z,3.33
2017-06-12T10:42:48.949Z,3.20
2017-06-12T10:45:17.084Z,3.13
2017-06-12T10:50:34.095Z,5.17
2017-06-12T10:53:02.214Z,3.20
2017-06-12T10:55:30.367Z,4.87
2017-06-12T10:57:58.592Z,6.30
2017-06-12T11:00:26.934Z,5.23
2017-06-12T11:02:55.039Z,6.57
2017-06-12T11:05:23.179Z,3.67
2017-06-12T11:07:51.395Z,4.60
2017-06-12T11:10:19.519Z,2.40
2017-06-12T11:12:48.496Z,4.23
2017-06-12T11:15:16.622Z,3.33
2017-06-12T11:17:44.767Z,4.27
2017-06-12T11:20:12.922Z,3.70
2017-06-12T11:22:41.128Z,3.43
2017-06-12T11:25:09.975Z,4.33
2017-06-12T11:27:38.114Z,4.53
2017-06-12T11:30:07.058Z,4.63
2017-06-12T11:32:35.911Z,6.70
2017-06-12T11:35:07.802Z,4.77
2017-06-12T11:37:48.357Z,4.87
2017-06-12T11:40:36.616Z,5.10
2017-06-12T11:43:08.783Z,3.20
2017-06-12T11:45:37.865Z,3.07
2017-06-12T11:48:06.023Z,5.93
2017-06-12T11:50:34.204Z,4.73
2017-06-12T11:53:02.364Z,5.70
2017-06-12T11:55:30.532Z,4.83
2017-06-12T11:57:59.033Z,6.67
2017-06-12T12:00:27.213Z,4.70
2017-06-12T12:02:56.244Z,4.97
2017-06-12T12:05:24.392Z,5.03
2017-06-12T12:07:52.687Z,4.40
2017-06-12T12:10:20.967Z,6.67
2017-06-12T12:12:49.437Z,5.07
2017-06-12T12:15:17.577Z,5.20
2017-06-12T12:17:45.743Z,5.10
2017-06-12T12:20:13.909Z,4.33
2017-06-12T12:22:42.078Z,3.00
2017-06-12T12:25:10.198Z,7.50
2017-06-12T12:27:38.387Z,6.63
2017-06-12T12:30:06.514Z,5.63
2017-06-12T12:32:34.653Z,4.13
2017-06-12T12:35:02.970Z,4.10
2017-06-12T12:37:31.226Z,6.73
2017-06-12T12:39:59.346Z,7.70
2017-06-12T12:42:27.572Z,5.23
2017-06-12T12:44:55.682Z,5.10
2017-06-12T12:47:23.847Z,4.50
2017-06-12T12:49:52.070Z,7.73
2017-06-12T12:52:20.212Z,4.97
2017-06-12T12:54:48.370Z,5.67
2017-06-12T12:57:16.483Z,4.00
2017-06-12T12:59:44.677Z,8.63
2017-06-12T13:02:12.805Z,4.37
2017-06-12T13:04:40.938Z,4.27
2017-06-12T13:07:09.127Z,5.90
2017-06-12T13:09:37.249Z,7.33
2017-06-12T13:12:06.324Z,2.83
2017-06-12T13:14:34.522Z,3.50
2017-06-12T13:17:02.655Z,3.70
2017-06-12T13:19:30.820Z,10.93
2017-06-12T13:21:59.154Z,3.43
2017-06-12T13:24:27.329Z,3.30
2017-06-12T13:26:55.491Z,5.13
2017-06-12T13:29:23.713Z,3.77
2017-06-12T13:31:51.849Z,4.53
2017-06-12T13:34:20.038Z,2.47
2017-06-12T13:36:48.162Z,3.67
2017-06-12T13:39:19.548Z,4.87
2017-06-12T13:41:53.333Z,4.80
2017-06-12T13:44:21.510Z,6.77
2017-06-12T13:46:49.630Z,5.33
2017-06-12T13:49:17.740Z,8.77
2017-06-12T13:51:45.899Z,3.60
2017-06-12T13:54:14.130Z,17.33
2017-06-12T13:56:42.216Z,4.90
2017-06-12T13:59:10.365Z,4.13
2017-06-12T14:01:38.775Z,2.03
2017-06-12T14:04:06.884Z,2.67
2017-06-12T14:06:35.102Z,1.63
2017-06-12T14:09:03.258Z,3.70
2017-06-12T14:11:31.347Z,2.00
2017-06-12T14:13:59.594Z,4.03
2017-06-12T14:16:27.782Z,2.43
2017-06-12T14:18:55.940Z,4.07
2017-06-12T14:21:25.035Z,5.00
2017-06-12T14:23:53.156Z,4.60
2017-06-12T14:26:22.111Z,3.80
2017-06-12T14:28:50.332Z,6.23
2017-06-12T14:31:18.481Z,4.87
2017-06-12T14:33:46.748Z,3.60
2017-06-12T14:36:14.933Z,6.50
2017-06-12T14:38:43.086Z,5.17
2017-06-12T14:41:11.623Z,2.17
2017-06-12T14:43:39.758Z,6.80
2017-06-12T14:46:07.907Z,3.43
2017-06-12T14:48:36.098Z,5.73
2017-06-12T14:51:04.253Z,7.87
2017-06-12T14:53:32.364Z,8.40
2017-06-12T14:56:01.498Z,4.60
2017-06-12T14:58:29.693Z,4.43
2017-06-12T15:00:58.015Z,3.77
2017-06-12T15:03:26.135Z,6.77
2017-06-12T15:05:56.299Z,3.80
2017-06-12T15:08:25.324Z,4.53
2017-06-12T15:10:53.585Z,3.73
2017-06-12T15:13:22.684Z,3.47
2017-06-12T15:15:59.495Z,5.57
2017-06-12T15:18:28.559Z,4.80
2017-06-12T15:21:08.718Z,4.83
2017-06-12T15:23:37.757Z,6.63
2017-06-12T15:26:07.892Z,2.83
2017-06-12T15:28:36.047Z,3.00
2017-06-12T15:31:04.826Z,3.70
2017-06-12T15:33:32.999Z,5.50
2017-06-12T15:36:01.159Z,5.80
2017-06-12T15:38:29.314Z,6.67
2017-06-12T15:40:57.433Z,3.07
2017-06-12T15:43:25.773Z,4.27
2017-06-12T15:45:54.056Z,4.60
2017-06-12T15:48:23.178Z,3.70
2017-06-12T15:50:51.567Z,6.03
2017-06-12T15:53:19.703Z,4.87
2017-06-12T15:55:47.831Z,3.80
2017-06-12T15:58:16.058Z,4.60
2017-06-12T16:00:44.248Z,3.80
2017-06-12T16:03:15.291Z,6.07
2017-06-12T16:05:43.412Z,5.10
2017-06-12T16:08:12.330Z,6.20
2017-06-12T16:10:40.511Z,4.37
2017-06-12T16:13:08.734Z,3.27
2017-06-12T16:15:37.174Z,4.27
2017-06-12T16:18:05.391Z,3.63
2017-06-12T16:20:33.528Z,5.17
2017-06-12T16:23:01.731Z,4.37
2017-06-12T16:25:30.791Z,9.97
2017-06-12T16:27:59.899Z,5.33
2017-06-12T16:30:30.342Z,2.50
2017-06-12T16:32:58.465Z,4.20
2017-06-12T16:35:26.634Z,4.50
2017-06-12T16:37:54.787Z,3.60
2017-06-12T16:40:23.895Z,2.70
2017-06-12T16:42:51.983Z,2.80
2017-06-12T16:45:20.256Z,6.73
2017-06-12T16:47:49.339Z,3.10
2017-06-12T16:50:17.498Z,4.27
2017-06-12T16:52:45.650Z,3.37
2017-06-12T16:55:13.806Z,4.27
2017-06-12T16:57:41.938Z,2.37
2017-06-12T17:00:10.083Z,4.83
2017-06-12T17:02:38.560Z,2.40
2017-06-12T17:05:09.755Z,4.97
2017-06-12T17:07:37.897Z,3.27
2017-06-12T17:10:06.298Z,4.40
2017-06-12T17:12:34.533Z,3.20
2017-06-12T17:15:02.638Z,2.53
2017-06-12T17:17:30.908Z,7.23
2017-06-12T17:19:59.421Z,3.60
2017-06-12T17:22:27.555Z,5.00
2017-06-12T17:24:55.736Z,4.27
2017-06-12T17:27:27.952Z,5.97
2017-06-12T17:29:58.182Z,3.40
2017-06-12T17:32:28.218Z,5.80
2017-06-12T17:34:56.316Z,2.23
2017-06-12T17:37:24.442Z,4.13
2017-06-12T17:39:54.765Z,3.00
2017-06-12T17:42:29.908Z,5.70
2017-06-12T17:44:58.119Z,5.50
2017-06-12T17:47:26.235Z,3.87
2017-06-12T17:49:54.376Z,7.63
2017-06-12T17:52:22.474Z,4.07
2017-06-12T17:54:50.824Z,2.80
2017-06-12T17:57:18.955Z,3.87
2017-06-12T17:59:47.086Z,3.33
2017-06-12T18:02:15.222Z,2.93
2017-06-12T18:04:45.390Z,4.13
2017-06-12T18:07:13.598Z,4.03
2017-06-12T18:09:46.543Z,5.50
2017-06-12T18:12:20.188Z,4.80
2017-06-12T18:14:48.359Z,4.53
2017-06-12T18:17:16.498Z,5.43
2017-06-12T18:19:44.598Z,3.33
2017-06-12T18:22:12.861Z,5.53
2017-06-12T18:24:40.984Z,5.30
2017-06-12T18:27:09.156Z,2.73
2017-06-12T18:29:37.309Z,3.03
2017-06-12T18:32:05.522Z,5.00
2017-06-12T18:34:33.650Z,4.27
2017-06-12T18:37:01.798Z,3.27
2017-06-12T18:39:49.234Z,4.60
2017-06-12T18:42:23.450Z,6.90
2017-06-12T18:44:51.641Z,5.00
2017-06-12T18:47:19.817Z,4.27
2017-06-12T18:49:48.036Z,5.90
2017-06-12T18:52:16.197Z,3.47
2017-06-12T18:54:44.459Z,6.40
2017-06-12T18:57:12.687Z,7.60
2017-06-12T18:59:40.825Z,6.37
2017-06-12T19:02:21.291Z,4.83
2017-06-12T19:04:49.473Z,6.60
2017-06-12T19:07:17.629Z,4.40
2017-06-12T19:09:45.853Z,3.73
2017-06-12T19:12:19.785Z,4.60
2017-06-12T19:14:48.475Z,4.83
2017-06-12T19:17:17.239Z,5.37
2017-06-12T19:19:45.494Z,3.40
2017-06-12T19:22:23.672Z,7.13
2017-06-12T19:24:51.950Z,7.43
2017-06-12T19:27:21.674Z,4.73
2017-06-12T19:29:51.728Z,5.13
2017-06-12T19:32:22.921Z,5.10
2017-06-12T19:34:51.896Z,4.77
2017-06-12T19:37:20.108Z,4.80
2017-06-12T19:45:24.402Z,6.80
2017-06-12T19:47:52.598Z,1.63
2017-06-12T19:50:21.219Z,8.43
2017-06-12T19:52:49.496Z,4.67
2017-06-12T19:55:18.541Z,3.47
2017-06-12T19:57:46.734Z,7.70
2017-06-12T20:03:16.387Z,4.97
2017-06-12T20:05:44.665Z,9.77
2017-06-12T20:11:13.395Z,5.83
2017-06-12T20:13:41.490Z,7.47
2017-06-12T20:16:09.600Z,6.40
2017-06-12T20:18:38.407Z,7.17
2017-06-12T20:21:08.566Z,4.37
2017-06-12T20:23:36.732Z,3.43
2017-06-12T20:26:07.510Z,6.20
2017-06-12T20:28:36.393Z,4.93
2017-06-12T20:31:04.516Z,9.20
2017-06-12T20:33:33.667Z,6.33
2017-06-12T20:36:01.832Z,7.13
2017-06-12T20:38:29.978Z,4.07
2017-06-12T20:40:58.097Z,6.53
2017-06-12T20:43:26.211Z,5.20
2017-06-12T20:45:54.345Z,4.60
2017-06-12T20:48:22.565Z,3.20
2017-06-12T20:50:55.820Z,4.03
2017-06-12T20:53:23.955Z,5.17
2017-06-12T20:55:58.717Z,3.00
2017-06-12T20:58:38.155Z,6.00
2017-06-12T21:01:19.516Z,6.50
2017-06-12T21:03:47.794Z,3.53
2017-06-12T21:06:15.928Z,4.50
2017-06-12T21:08:44.098Z,8.70
2017-06-12T21:11:15.507Z,4.27
2017-06-12T21:13:43.669Z,8.40
2017-06-12T21:16:12.039Z,3.77
2017-06-12T21:18:52.528Z,7.10
2017-06-12T21:21:20.640Z,6.93
2017-06-12T21:23:48.771Z,4.67
2017-06-12T21:26:16.928Z,4.93
2017-06-12T21:28:47.101Z,5.50
2017-06-12T21:31:15.321Z,4.73
2017-06-12T21:33:51.619Z,6.20
2017-06-12T21:36:19.736Z,4.87
2017-06-12T21:38:49.865Z,3.90
2017-06-12T21:41:18.578Z,6.20
2017-06-12T21:43:46.796Z,4.33
2017-06-12T21:46:14.970Z,6.30
2017-06-12T21:48:43.061Z,6.70
2017-06-12T21:51:11.390Z,3.87
2017-06-12T21:53:39.503Z,3.03
2017-06-12T21:56:07.690Z,7.67
2017-06-12T21:58:35.875Z,5.50
2017-06-12T22:01:11.562Z,5.00
2017-06-12T22:03:39.811Z,3.17
2017-06-12T22:06:08.768Z,3.73
2017-06-12T22:08:36.952Z,3.57
2017-06-12T22:11:05.671Z,6.00
2017-06-12T22:13:33.814Z,4.43
2017-06-12T22:16:01.991Z,4.43
2017-06-12T22:18:30.134Z,7.80
2017-06-12T22:20:58.261Z,3.03
2017-06-12T22:23:38.796Z,6.80
2017-06-12T22:26:06.927Z,6.00
2017-06-12T22:28:36.894Z,5.47
2017-06-12T22:31:08.646Z,5.67
2017-06-12T22:33:36.795Z,3.00
2017-06-12T22:36:04.917Z,4.20
2017-06-12T22:38:33.059Z,4.53
2017-06-12T22:41:01.707Z,6.20
2017-06-12T22:43:29.836Z,6.00
2017-06-12T22:45:57.993Z,7.40
2017-06-12T22:48:26.130Z,4.40
2017-06-12T22:50:54.318Z,5.83
2017-06-12T22:53:31.342Z,7.30
2017-06-12T22:56:00.017Z,4.77
2017-06-12T22:58:28.127Z,3.60
2017-06-12T23:00:56.300Z,3.87
2017-06-12T23:03:35.123Z,7.40
2017-06-12T23:06:03.414Z,3.80
2017-06-12T23:08:31.565Z,3.90
2017-06-12T23:10:59.826Z,4.90
2017-06-12T23:13:27.941Z,3.40
2017-06-12T23:15:56.111Z,6.90
2017-06-12T23:18:24.211Z,8.00
2017-06-12T23:20:53.262Z,4.50
2017-06-12T23:23:21.431Z,3.47
2017-06-12T23:25:55.488Z,2.43
2017-06-12T23:28:28.919Z,2.90
2017-06-12T23:30:57.040Z,8.57
2017-06-12T23:33:28.533Z,5.13
2017-06-12T23:35:56.764Z,8.97
2017-06-12T23:38:24.971Z,7.60
2017-06-12T23:40:53.409Z,3.93
2017-06-12T23:43:21.672Z,6.37
2017-06-12T23:45:49.855Z,6.03
2017-06-12T23:48:18.036Z,5.43
2017-06-12T23:50:46.133Z,4.13
2017-06-12T23:53:14.324Z,4.27
2017-06-12T23:55:42.453Z,2.97
2017-06-12T23:58:10.606Z,8.27
